Time;durP1;ratioP1;P1;durP2;ratioP2;P2;SDS_P1;SDS_P2;PMS_P1;PMS_P2;Temp;Humidity;BMP_temperature;BMP_pressure;BME280_temperature;BME280_humidity;BME280_pressure;Samples;Min_cycle;Max_cycle;Signal;HPM_P1;HPM_P2
2021/09/27 00:01:43;;;;;;;15.60;14.00;;;18.50;76.70;;;;;;2630076;38;20366;-81
2021/09/27 00:04:09;;;;;;;15.57;13.53;;;18.30;76.70;;;;;;2629609;38;20201;-81
2021/09/27 00:06:35;;;;;;;17.37;15.57;;;18.30;77.10;;;;;;2630588;38;20194;-81
2021/09/27 00:09:02;;;;;;;15.97;14.20;;;18.10;77.30;;;;;;2631166;30;20986;-80
2021/09/27 00:11:28;;;;;;;17.70;14.43;;;17.80;78.30;;;;;;2631067;30;20198;-81
2021/09/27 00:13:57;;;;;;;15.13;13.57;;;17.90;78.40;;;;;;2629448;38;20367;-80
2021/09/27 00:16:24;;;;;;;14.93;13.33;;;18.10;77.90;;;;;;2630249;30;20353;-78
2021/09/27 00:18:50;;;;;;;13.97;12.47;;;17.90;78.40;;;;;;2630302;30;20440;-80
2021/09/27 00:21:31;;;;;;;14.87;13.37;;;17.90;78.10;;;;;;2629274;38;20949;-79
2021/09/27 00:23:58;;;;;;;15.00;13.37;;;17.70;78.20;;;;;;2629739;30;20390;-80
2021/09/27 00:26:28;;;;;;;14.83;13.23;;;17.70;78.70;;;;;;2630249;30;20514;-79
2021/09/27 00:28:53;;;;;;;16.90;13.47;;;17.70;78.80;;;;;;2629784;38;20410;-79
2021/09/27 00:31:20;;;;;;;16.67;13.80;;;17.60;78.70;;;;;;2629295;30;20482;-79
2021/09/27 00:33:46;;;;;;;14.10;12.73;;;17.70;78.70;;;;;;2631256;30;20194;-79
2021/09/27 00:36:12;;;;;;;18.60;13.90;;;17.70;78.50;;;;;;2631137;30;20359;-80
2021/09/27 00:38:39;;;;;;;23.13;13.10;;;17.60;78.70;;;;;;2629440;38;20375;-79
2021/09/27 00:41:08;;;;;;;15.73;13.17;;;17.80;77.90;;;;;;2630751;30;20391;-79
2021/09/27 00:43:36;;;;;;;20.00;13.07;;;17.50;78.60;;;;;;2630386;38;20355;-79
2021/09/27 00:46:07;;;;;;;14.43;13.00;;;17.70;78.60;;;;;;2629669;30;20379;-80
2021/09/27 00:48:33;;;;;;;14.50;12.27;;;17.70;78.00;;;;;;2630453;30;20436;-80
2021/09/27 00:51:03;;;;;;;14.37;12.87;;;17.80;77.80;;;;;;2630132;38;20494;-80
2021/09/27 00:53:37;;;;;;;20.67;13.63;;;18.10;77.20;;;;;;2632502;30;20626;-80
2021/09/27 00:56:06;;;;;;;13.87;12.30;;;18.20;76.20;;;;;;2630575;38;21993;-80
2021/09/27 00:58:33;;;;;;;14.63;13.13;;;18.20;76.30;;;;;;2629946;38;20379;-80
2021/09/27 01:01:02;;;;;;;13.90;12.50;;;18.00;76.70;;;;;;2629932;38;20405;-81
2021/09/27 01:03:29;;;;;;;14.80;13.00;;;18.10;76.80;;;;;;2630006;30;20391;-80
2021/09/27 01:06:16;;;;;;;13.53;12.13;;;18.00;76.70;;;;;;2630189;38;20830;-80
2021/09/27 01:08:55;;;;;;;14.90;11.73;;;18.20;76.80;;;;;;2628064;30;21251;-81
2021/09/27 01:11:40;;;;;;;15.40;13.20;;;18.20;76.40;;;;;;2629888;30;20387;-81
2021/09/27 01:14:25;;;;;;;16.30;12.90;;;18.30;75.80;;;;;;2632069;30;20398;-80
2021/09/27 01:17:11;;;;;;;12.17;10.93;;;18.20;75.80;;;;;;2629706;30;20371;-81
2021/09/27 01:20:14;;;;;;;16.43;13.50;;;18.20;75.90;;;;;;2628389;38;20402;-80
2021/09/27 01:23:05;;;;;;;14.03;11.70;;;18.20;75.70;;;;;;2629348;30;20386;-80
2021/09/27 01:25:52;;;;;;;13.50;11.97;;;18.00;76.60;;;;;;2630057;30;20416;-79
2021/09/27 01:28:57;;;;;;;16.10;11.40;;;18.00;76.50;;;;;;2629326;30;20386;-79
2021/09/27 01:31:50;;;;;;;15.40;12.87;;;18.00;76.40;;;;;;2629751;30;20866;-80
2021/09/27 01:34:43;;;;;;;15.73;13.50;;;18.00;77.40;;;;;;2629577;30;20407;-79
2021/09/27 01:37:08;;;;;;;13.87;11.40;;;17.80;76.80;;;;;;2629353;30;20413;-79
2021/09/27 01:39:37;;;;;;;14.63;13.07;;;17.90;77.10;;;;;;2629501;30;20910;-80
2021/09/27 01:42:06;;;;;;;16.20;12.40;;;17.80;76.90;;;;;;2630526;30;20189;-79
2021/09/27 01:44:59;;;;;;;18.03;13.30;;;18.10;76.60;;;;;;2629615;38;20974;-80
2021/09/27 01:47:34;;;;;;;14.27;12.80;;;17.70;77.00;;;;;;2628731;30;20976;-81
2021/09/27 01:50:07;;;;;;;27.03;14.23;;;17.70;77.50;;;;;;2629558;38;20815;-80
2021/09/27 01:53:05;;;;;;;14.40;12.90;;;17.70;77.40;;;;;;2630905;30;20386;-81
2021/09/27 01:55:46;;;;;;;13.93;10.67;;;17.30;78.30;;;;;;2628985;30;20949;-80
2021/09/27 01:58:36;;;;;;;13.23;11.83;;;17.10;79.00;;;;;;2629132;30;21257;-80
2021/09/27 02:01:10;;;;;;;18.10;12.77;;;17.00;79.30;;;;;;2629617;30;20475;-77
2021/09/27 02:03:43;;;;;;;15.00;11.90;;;17.00;79.40;;;;;;2630270;30;20816;-80
2021/09/27 02:06:15;;;;;;;15.53;12.70;;;17.20;78.80;;;;;;2628131;30;21042;-80
2021/09/27 02:08:46;;;;;;;14.03;12.50;;;17.00;79.00;;;;;;2629957;38;20351;-80
2021/09/27 02:11:15;;;;;;;14.90;12.60;;;17.00;79.50;;;;;;2629820;38;20375;-79
2021/09/27 02:14:03;;;;;;;14.77;12.40;;;17.00;79.20;;;;;;2629937;38;20474;-80
2021/09/27 02:16:42;;;;;;;14.60;12.47;;;17.00;79.50;;;;;;2630710;30;20913;-78
2021/09/27 02:19:21;;;;;;;14.13;11.97;;;17.00;79.80;;;;;;2629202;38;20383;-79
2021/09/27 02:21:51;;;;;;;15.60;11.57;;;17.10;79.20;;;;;;2628618;30;20483;-79
2021/09/27 02:24:23;;;;;;;16.90;12.47;;;17.10;79.00;;;;;;2629435;30;20390;-79
2021/09/27 02:26:50;;;;;;;15.33;12.30;;;17.20;78.80;;;;;;2630346;38;20415;-80
2021/09/27 02:29:17;;;;;;;14.10;11.90;;;17.20;78.30;;;;;;2629641;30;20385;-80
2021/09/27 02:32:04;;;;;;;14.30;11.00;;;17.20;79.00;;;;;;2632311;30;20418;-80
2021/09/27 02:34:39;;;;;;;14.63;12.57;;;17.20;78.90;;;;;;2629286;38;20398;-79
2021/09/27 02:37:29;;;;;;;17.00;12.70;;;17.00;79.20;;;;;;2631466;38;20433;-80
2021/09/27 02:40:28;;;;;;;17.00;11.13;;;16.90;79.50;;;;;;2629026;30;20371;-81
2021/09/27 02:42:57;;;;;;;14.57;11.13;;;17.00;79.50;;;;;;2628351;30;20926;-79
2021/09/27 02:45:25;;;;;;;15.70;12.23;;;17.10;79.40;;;;;;2629571;30;20390;-79
2021/09/27 02:48:17;;;;;;;16.20;12.20;;;17.20;78.70;;;;;;2628621;30;20390;-81
2021/09/27 02:50:47;;;;;;;18.43;12.77;;;17.20;78.30;;;;;;2628219;38;20407;-81
2021/09/27 02:53:14;;;;;;;16.53;12.10;;;17.30;78.30;;;;;;2627637;30;20383;-81
2021/09/27 02:56:04;;;;;;;13.03;11.73;;;17.50;78.60;;;;;;2629032;38;20853;-81
2021/09/27 02:58:41;;;;;;;15.23;12.27;;;17.50;78.20;;;;;;2629636;30;20387;-82
2021/09/27 03:01:34;;;;;;;14.70;12.43;;;17.50;78.20;;;;;;2629200;30;20985;-80
2021/09/27 03:04:05;;;;;;;16.17;12.73;;;17.60;77.90;;;;;;2628783;30;20403;-80
2021/09/27 03:06:41;;;;;;;16.87;12.73;;;18.10;76.70;;;;;;2630555;38;20527;-80
2021/09/27 03:09:13;;;;;;;13.33;10.60;;;18.00;76.50;;;;;;2629809;30;20731;-80
2021/09/27 03:11:41;;;;;;;14.87;11.53;;;18.30;76.30;;;;;;2629181;30;20378;-78
2021/09/27 03:14:07;;;;;;;13.60;11.20;;;18.20;75.30;;;;;;2627844;38;20392;-81
2021/09/27 03:17:07;;;;;;;13.80;10.63;;;17.80;76.40;;;;;;2628777;30;20498;-80
2021/09/27 03:20:01;;;;;;;13.83;11.50;;;17.80;76.90;;;;;;2630144;38;20305;-80
2021/09/27 03:23:00;;;;;;;12.53;9.90;;;18.00;76.80;;;;;;2630042;30;20379;-80
2021/09/27 03:25:52;;;;;;;13.43;10.80;;;18.00;76.40;;;;;;2630837;30;20541;-80
2021/09/27 03:28:44;;;;;;;15.47;11.20;;;18.00;76.60;;;;;;2629470;30;20383;-81
2021/09/27 03:31:32;;;;;;;13.17;11.83;;;17.90;77.00;;;;;;2629502;38;20417;-80
2021/09/27 03:34:06;;;;;;;12.60;10.70;;;18.00;77.20;;;;;;2629745;30;20394;-80
2021/09/27 03:36:56;;;;;;;16.70;12.53;;;18.30;76.50;;;;;;2630478;30;20402;-81
2021/09/27 03:40:09;;;;;;;14.43;10.87;;;18.40;75.70;;;;;;2630488;30;20797;-80
2021/09/27 03:43:04;;;;;;;12.00;10.60;;;18.30;75.70;;;;;;2628430;30;20925;-80
2021/09/27 03:45:56;;;;;;;14.23;11.50;;;18.40;75.50;;;;;;2628370;38;20451;-81
2021/09/27 03:48:46;;;;;;;11.83;9.90;;;18.40;76.00;;;;;;2628762;30;20418;-80
2021/09/27 03:51:34;;;;;;;12.20;10.37;;;18.50;75.70;;;;;;2630274;30;20370;-79
2021/09/27 03:54:17;;;;;;;11.50;9.67;;;18.50;75.30;;;;;;2628990;30;20464;-80
2021/09/27 03:56:57;;;;;;;11.93;9.47;;;18.50;75.40;;;;;;2629719;30;20365;-81
2021/09/27 03:59:50;;;;;;;12.60;10.37;;;18.60;75.30;;;;;;2628538;30;20383;-79
2021/09/27 04:02:35;;;;;;;14.20;10.27;;;18.40;75.80;;;;;;2628762;30;20391;-80
2021/09/27 04:05:14;;;;;;;10.87;9.20;;;18.60;75.10;;;;;;2629833;30;21133;-79
2021/09/27 04:07:54;;;;;;;13.27;11.10;;;18.40;75.80;;;;;;2628972;30;20947;-81
2021/09/27 04:10:32;;;;;;;13.93;11.70;;;18.40;76.00;;;;;;2629313;30;20907;-80
2021/09/27 04:13:17;;;;;;;14.47;9.83;;;18.40;76.00;;;;;;2629252;30;20390;-80
2021/09/27 04:15:45;;;;;;;12.33;11.20;;;18.60;74.80;;;;;;2630323;30;20985;-79
2021/09/27 04:18:20;;;;;;;11.20;10.03;;;18.70;75.20;;;;;;2629547;30;20909;-80
2021/09/27 04:20:55;;;;;;;12.67;11.37;;;18.60;75.00;;;;;;2629286;30;20402;-80
2021/09/27 04:23:42;;;;;;;13.17;10.60;;;18.50;75.40;;;;;;2629321;30;20379;-80
2021/09/27 04:26:17;;;;;;;16.20;10.63;;;18.50;75.10;;;;;;2629750;30;20406;-79
2021/09/27 04:29:21;;;;;;;17.63;12.40;;;18.00;76.10;;;;;;2630739;38;20362;-80
2021/09/27 04:32:00;;;;;;;13.23;10.77;;;18.00;76.80;;;;;;2629085;38;20378;-81
2021/09/27 04:34:50;;;;;;;14.27;10.47;;;18.30;75.80;;;;;;2630344;30;20383;-80
2021/09/27 04:37:17;;;;;;;14.53;10.47;;;18.20;76.00;;;;;;2629280;30;21123;-80
2021/09/27 04:39:46;;;;;;;15.03;10.07;;;18.20;76.40;;;;;;2629652;38;20405;-80
2021/09/27 04:42:42;;;;;;;14.27;10.47;;;18.40;76.10;;;;;;2629196;38;21160;-79
2021/09/27 04:45:33;;;;;;;13.50;12.17;;;18.00;76.00;;;;;;2630465;30;20478;-80
2021/09/27 04:48:36;;;;;;;14.57;10.93;;;18.30;76.50;;;;;;2629891;30;20382;-79
2021/09/27 04:51:05;;;;;;;14.40;11.67;;;18.20;75.60;;;;;;2629228;38;20391;-80
2021/09/27 04:53:51;;;;;;;12.60;10.87;;;18.20;75.90;;;;;;2630854;30;20769;-80
2021/09/27 04:56:45;;;;;;;15.10;11.70;;;18.30;75.30;;;;;;2629512;30;20379;-80
2021/09/27 04:59:14;;;;;;;13.20;10.30;;;18.40;76.00;;;;;;2630698;30;20425;-82
2021/09/27 05:01:56;;;;;;;11.47;9.87;;;18.30;75.40;;;;;;2629835;38;20848;-79
2021/09/27 05:04:28;;;;;;;14.10;10.40;;;18.30;75.20;;;;;;2629920;30;20387;-82
2021/09/27 05:07:22;;;;;;;13.80;11.23;;;18.30;75.80;;;;;;2629878;30;20955;-80
2021/09/27 05:10:24;;;;;;;11.47;10.37;;;18.20;75.80;;;;;;2629927;30;20970;-79
2021/09/27 05:13:13;;;;;;;12.70;10.17;;;18.30;75.80;;;;;;2629280;30;20374;-78
2021/09/27 05:15:52;;;;;;;13.00;11.70;;;18.20;76.40;;;;;;2630375;30;20383;-80
2021/09/27 05:18:33;;;;;;;12.90;10.60;;;18.00;76.00;;;;;;2631234;30;20370;-81
2021/09/27 05:21:23;;;;;;;12.47;11.17;;;18.30;75.60;;;;;;2630573;30;20388;-80
2021/09/27 05:23:52;;;;;;;15.40;10.77;;;18.10;76.20;;;;;;2630091;30;20954;-80
2021/09/27 05:26:33;;;;;;;14.43;11.50;;;18.10;76.50;;;;;;2627470;38;20518;-80
2021/09/27 05:29:02;;;;;;;12.90;10.67;;;18.20;76.30;;;;;;2629301;30;20378;-81
2021/09/27 05:31:38;;;;;;;10.90;9.80;;;18.40;75.70;;;;;;2630135;30;20383;-81
2021/09/27 05:34:18;;;;;;;12.23;10.93;;;18.40;74.80;;;;;;2626533;30;20455;-81
2021/09/27 05:37:02;;;;;;;12.33;10.90;;;18.40;75.60;;;;;;2628060;38;20395;-80
2021/09/27 05:39:52;;;;;;;11.73;10.30;;;18.30;75.60;;;;;;2631067;30;20454;-82
2021/09/27 05:43:21;;;;;;;13.97;11.90;;;18.20;76.00;;;;;;2629349;30;20476;-82
2021/09/27 05:45:55;;;;;;;12.13;10.77;;;18.10;76.10;;;;;;2627975;30;20357;-81
2021/09/27 05:48:42;;;;;;;14.27;10.40;;;17.90;76.20;;;;;;2629634;38;20379;-81
2021/09/27 05:51:15;;;;;;;13.40;11.33;;;18.00;76.60;;;;;;2628616;38;20391;-82
2021/09/27 05:54:07;;;;;;;13.97;10.93;;;18.20;76.00;;;;;;2630036;30;20881;-82
2021/09/27 05:56:50;;;;;;;11.87;10.70;;;18.30;75.60;;;;;;2629862;38;20971;-81
2021/09/27 05:59:36;;;;;;;12.60;10.40;;;18.30;75.90;;;;;;2628520;30;20486;-82
2021/09/27 06:02:20;;;;;;;16.20;12.40;;;18.20;75.90;;;;;;2628379;38;20429;-81
2021/09/27 06:05:11;;;;;;;11.17;10.10;;;18.10;76.20;;;;;;2629884;30;20366;-81
2021/09/27 06:07:56;;;;;;;11.77;9.90;;;18.10;76.60;;;;;;2627133;38;20968;-82
2021/09/27 06:10:39;;;;;;;14.80;10.67;;;18.30;76.10;;;;;;2626976;30;20414;-82
2021/09/27 06:13:28;;;;;;;15.03;10.77;;;18.30;76.40;;;;;;2628385;38;20386;-82
2021/09/27 06:16:01;;;;;;;19.60;10.47;;;18.50;75.30;;;;;;2632324;38;20398;-81
2021/09/27 06:18:53;;;;;;;10.73;9.63;;;18.70;74.60;;;;;;2633916;30;20371;-81
2021/09/27 06:21:24;;;;;;;17.73;7.80;;;19.00;73.00;;;;;;2633744;30;20379;-82
2021/09/27 06:24:11;;;;;;;10.97;9.57;;;19.30;72.20;;;;;;2630662;30;20936;-81
2021/09/27 06:26:49;;;;;;;10.37;9.40;;;19.60;70.80;;;;;;2634806;30;20358;-81
2021/09/27 06:29:24;;;;;;;12.33;8.83;;;19.10;72.20;;;;;;2629985;30;20423;-82
2021/09/27 06:32:02;;;;;;;10.53;9.50;;;19.20;72.80;;;;;;2638834;30;20735;-81
2021/09/27 06:35:01;;;;;;;9.43;8.43;;;19.30;72.50;;;;;;2631530;30;21151;-81
2021/09/27 06:37:29;;;;;;;12.50;8.83;;;19.80;70.90;;;;;;2634279;38;20479;-80
2021/09/27 06:39:56;;;;;;;13.60;9.57;;;20.40;68.20;;;;;;2632964;30;20936;-80
2021/09/27 06:42:21;;;;;;;11.87;8.80;;;20.90;67.10;;;;;;2633471;30;20914;-83
2021/09/27 06:44:47;;;;;;;10.20;9.07;;;21.10;66.20;;;;;;2631786;30;20395;-81
2021/09/27 06:47:15;;;;;;;9.30;8.40;;;21.10;67.40;;;;;;2632094;30;20190;-82
2021/09/27 06:49:42;;;;;;;12.43;9.60;;;21.60;65.10;;;;;;2633225;30;20198;-80
2021/09/27 06:52:07;;;;;;;12.50;9.50;;;21.50;64.90;;;;;;2629627;30;20382;-80
2021/09/27 06:54:34;;;;;;;10.37;9.27;;;22.10;62.60;;;;;;2630928;30;20386;-81
2021/09/27 06:57:00;;;;;;;13.10;8.53;;;22.10;62.00;;;;;;2631453;30;20190;-81
2021/09/27 06:59:26;;;;;;;9.03;8.10;;;22.50;62.20;;;;;;2632790;30;20383;-80
2021/09/27 07:01:52;;;;;;;15.13;9.40;;;23.40;59.20;;;;;;2638210;30;20786;-80
2021/09/27 07:04:18;;;;;;;9.07;8.07;;;23.10;60.00;;;;;;2631286;30;20404;-81
2021/09/27 07:06:44;;;;;;;11.43;7.60;;;24.10;57.70;;;;;;2636293;30;20224;-82
2021/09/27 07:09:11;;;;;;;9.87;8.90;;;24.50;56.60;;;;;;2631471;30;20617;-82
2021/09/27 07:11:38;;;;;;;8.87;6.53;;;25.00;56.40;;;;;;2638272;30;20390;-82
2021/09/27 07:14:05;;;;;;;8.73;7.83;;;25.40;55.20;;;;;;2631097;30;20386;-82
2021/09/27 07:16:32;;;;;;;8.93;8.03;;;25.20;56.60;;;;;;2629516;30;20398;-82
2021/09/27 07:18:58;;;;;;;8.37;7.50;;;26.50;53.50;;;;;;2632215;30;20374;-82
2021/09/27 07:21:24;;;;;;;10.10;9.10;;;26.00;53.20;;;;;;2633187;38;20383;-81
2021/09/27 07:23:50;;;;;;;8.70;7.80;;;25.50;53.70;;;;;;2631660;30;20245;-81
2021/09/27 07:26:18;;;;;;;10.40;9.20;;;24.20;56.00;;;;;;2631444;38;20415;-80
2021/09/27 07:28:46;;;;;;;10.70;9.10;;;24.20;57.20;;;;;;2629407;30;20213;-81
2021/09/27 07:31:12;;;;;;;9.87;8.83;;;23.70;57.10;;;;;;2632537;30;20387;-81
2021/09/27 07:33:38;;;;;;;10.87;8.80;;;22.90;59.90;;;;;;2631975;30;20887;-79
2021/09/27 07:36:06;;;;;;;8.87;8.03;;;22.10;63.20;;;;;;2635156;30;20403;-81
2021/09/27 07:38:33;;;;;;;8.83;8.03;;;20.90;66.10;;;;;;2630561;30;20403;-80
2021/09/27 07:41:00;;;;;;;9.10;8.00;;;21.30;66.00;;;;;;2634583;30;20375;-81
2021/09/27 07:43:26;;;;;;;9.03;8.13;;;21.50;64.90;;;;;;2633111;30;20494;-80
2021/09/27 07:45:54;;;;;;;8.97;8.07;;;21.40;65.30;;;;;;2630981;30;20519;-81
2021/09/27 07:48:20;;;;;;;9.10;7.80;;;21.20;66.10;;;;;;2630965;30;20977;-81
2021/09/27 07:50:49;;;;;;;9.33;8.43;;;21.80;64.40;;;;;;2630748;30;20386;-81
2021/09/27 07:53:16;;;;;;;9.10;8.13;;;23.10;59.80;;;;;;2630726;30;20309;-80
2021/09/27 07:55:42;;;;;;;12.17;9.43;;;24.00;57.30;;;;;;2634982;30;20892;-80
2021/09/27 07:58:08;;;;;;;10.37;8.73;;;25.40;54.60;;;;;;2632242;30;20375;-81
2021/09/27 08:00:35;;;;;;;10.10;8.43;;;26.50;52.10;;;;;;2632018;38;20747;-80
2021/09/27 08:03:01;;;;;;;10.70;9.57;;;24.70;54.80;;;;;;2630962;30;20868;-80
2021/09/27 08:05:30;;;;;;;9.83;8.90;;;23.90;57.50;;;;;;2643700;30;20391;-80
2021/09/27 08:07:57;;;;;;;9.80;8.57;;;22.70;59.90;;;;;;2630136;30;20387;-81
2021/09/27 08:10:24;;;;;;;10.03;8.47;;;21.30;63.80;;;;;;2630818;38;20501;-80
2021/09/27 08:12:51;;;;;;;10.90;9.50;;;21.40;63.40;;;;;;2629985;38;20414;-79
2021/09/27 08:15:23;;;;;;;10.13;9.13;;;21.50;63.00;;;;;;2630702;38;20418;-78
2021/09/27 08:17:52;;;;;;;10.77;9.27;;;22.40;60.90;;;;;;2630663;30;20913;-80
2021/09/27 08:20:29;;;;;;;9.87;8.63;;;22.60;60.90;;;;;;2632970;38;21220;-80
2021/09/27 08:22:55;;;;;;;10.60;9.60;;;22.50;61.00;;;;;;2630470;30;20434;-78
2021/09/27 08:25:23;;;;;;;9.30;8.50;;;21.90;62.10;;;;;;2631742;30;20389;-81
2021/09/27 08:27:52;;;;;;;9.97;8.60;;;22.50;60.70;;;;;;2631596;38;20471;-81
2021/09/27 08:30:31;;;;;;;9.00;8.07;;;24.20;56.90;;;;;;2631384;30;20899;-81
2021/09/27 08:32:59;;;;;;;8.10;7.40;;;25.80;52.10;;;;;;2629443;30;20588;-81
2021/09/27 08:35:29;;;;;;;8.07;7.37;;;27.80;49.60;;;;;;2629436;38;20413;-80
2021/09/27 08:37:57;;;;;;;10.23;8.23;;;26.70;50.70;;;;;;2630526;30;20916;-81
2021/09/27 08:40:42;;;;;;;7.53;6.90;;;25.20;53.90;;;;;;2630600;30;20386;-80
2021/09/27 08:43:29;;;;;;;8.23;7.43;;;24.90;54.20;;;;;;2631883;30;20810;-81
2021/09/27 08:46:01;;;;;;;8.37;7.67;;;23.90;56.50;;;;;;2631849;30;20922;-80
2021/09/27 08:48:35;;;;;;;7.50;6.90;;;23.60;57.80;;;;;;2630194;30;20371;-81
2021/09/27 08:51:03;;;;;;;9.50;7.60;;;23.40;58.60;;;;;;2631667;30;20394;-79
2021/09/27 08:53:35;;;;;;;8.53;7.63;;;22.60;59.80;;;;;;2633027;30;20895;-80
2021/09/27 08:56:29;;;;;;;8.63;7.83;;;22.00;61.90;;;;;;2631139;38;20383;-80
2021/09/27 08:59:10;;;;;;;10.03;7.53;;;23.30;58.40;;;;;;2630495;30;20379;-80
2021/09/27 09:01:58;;;;;;;11.10;6.90;;;24.70;55.30;;;;;;2631954;30;20370;-80
2021/09/27 09:04:56;;;;;;;6.83;6.13;;;25.80;52.90;;;;;;2630403;38;20378;-80
2021/09/27 09:07:23;;;;;;;7.23;6.60;;;27.70;49.10;;;;;;2630077;30;20427;-82
2021/09/27 09:10:04;;;;;;;7.60;6.40;;;28.30;47.50;;;;;;2629802;38;20371;-80
2021/09/27 09:12:59;;;;;;;7.70;7.10;;;29.40;45.60;;;;;;2629562;38;20393;-80
2021/09/27 09:15:28;;;;;;;5.87;5.37;;;28.90;45.80;;;;;;2629086;30;20386;-81
2021/09/27 09:18:11;;;;;;;8.30;6.00;;;29.50;46.10;;;;;;2633046;30;20404;-81
2021/09/27 09:20:51;;;;;;;7.10;5.37;;;28.30;46.90;;;;;;2629633;38;20485;-81
2021/09/27 09:23:23;;;;;;;7.10;6.40;;;28.20;47.30;;;;;;2630436;30;20401;-81
2021/09/27 09:25:49;;;;;;;7.33;5.97;;;28.30;46.80;;;;;;2630234;30;20941;-80
2021/09/27 09:28:17;;;;;;;6.50;5.90;;;29.20;45.40;;;;;;2629594;38;20385;-80
2021/09/27 09:30:50;;;;;;;7.10;6.33;;;28.80;46.30;;;;;;2629148;30;20727;-79
2021/09/27 09:33:38;;;;;;;7.40;6.23;;;28.30;46.70;;;;;;2629560;38;20379;-78
2021/09/27 09:36:04;;;;;;;6.80;5.10;;;29.20;45.80;;;;;;2630968;30;21214;-81
2021/09/27 09:38:34;;;;;;;7.37;4.83;;;29.30;44.70;;;;;;2631003;30;20371;-81
2021/09/27 09:41:01;;;;;;;6.00;5.50;;;28.40;45.50;;;;;;2629005;30;20374;-81
2021/09/27 09:43:31;;;;;;;6.47;5.93;;;27.70;47.50;;;;;;2629828;38;20886;-81
2021/09/27 09:46:05;;;;;;;6.90;6.23;;;27.40;49.40;;;;;;2629684;38;20363;-82
2021/09/27 09:48:31;;;;;;;6.60;5.93;;;28.20;47.90;;;;;;2631258;38;20409;-80
2021/09/27 09:51:16;;;;;;;6.20;5.70;;;28.10;47.60;;;;;;2630482;30;20766;-80
2021/09/27 09:53:43;;;;;;;6.87;5.97;;;27.90;48.00;;;;;;2629497;38;20940;-80
2021/09/27 09:56:16;;;;;;;5.80;5.30;;;26.70;50.00;;;;;;2630623;30;20397;-81
2021/09/27 09:58:50;;;;;;;6.57;5.30;;;27.30;48.80;;;;;;2630445;30;20383;-79
2021/09/27 10:01:27;;;;;;;8.20;5.40;;;26.70;49.70;;;;;;2630294;30;20394;-80
2021/09/27 10:04:10;;;;;;;6.53;5.93;;;26.40;51.00;;;;;;2630328;30;20378;-79
2021/09/27 10:06:36;;;;;;;6.23;5.73;;;25.90;52.10;;;;;;2630681;30;20375;-81
2021/09/27 10:09:06;;;;;;;6.23;5.33;;;26.00;51.60;;;;;;2630954;30;20855;-81
2021/09/27 10:11:35;;;;;;;7.17;5.90;;;27.30;50.00;;;;;;2629357;38;20269;-81
2021/09/27 10:14:22;;;;;;;8.80;5.40;;;27.10;48.80;;;;;;2629457;30;20413;-79
2021/09/27 10:17:11;;;;;;;5.30;4.90;;;26.70;49.00;;;;;;2631313;30;21302;-80
2021/09/27 10:20:06;;;;;;;6.30;5.57;;;26.30;49.90;;;;;;2632931;30;20368;-81
2021/09/27 10:22:37;;;;;;;5.23;4.73;;;26.00;51.50;;;;;;2633075;30;20539;-82
2021/09/27 10:25:30;;;;;;;8.30;5.50;;;26.00;52.40;;;;;;2631267;30;20382;-80
2021/09/27 10:27:58;;;;;;;5.67;5.27;;;25.80;53.40;;;;;;2632911;30;20378;-81
2021/09/27 10:30:39;;;;;;;7.80;5.03;;;26.00;52.50;;;;;;2631713;30;20367;-81
2021/09/27 10:33:27;;;;;;;5.43;4.93;;;25.50;53.10;;;;;;2629715;30;20534;-81
2021/09/27 10:36:14;;;;;;;6.00;5.50;;;24.90;54.50;;;;;;2630325;38;20374;-82
2021/09/27 10:38:45;;;;;;;4.87;4.37;;;25.20;54.30;;;;;;2631545;30;21013;-80
2021/09/27 10:41:21;;;;;;;4.50;4.20;;;24.90;54.70;;;;;;2631524;30;20433;-80
2021/09/27 10:43:49;;;;;;;4.67;4.27;;;25.00;54.90;;;;;;2632778;38;20909;-80
2021/09/27 10:46:18;;;;;;;4.93;4.47;;;24.30;55.60;;;;;;2631255;38;20894;-79
2021/09/27 10:48:52;;;;;;;5.40;4.97;;;24.40;56.10;;;;;;2631767;30;20440;-80
2021/09/27 10:51:24;;;;;;;10.40;5.10;;;24.10;55.90;;;;;;2638883;30;20781;-81
2021/09/27 10:54:04;;;;;;;5.60;4.90;;;24.50;56.20;;;;;;2632202;30;20396;-79
2021/09/27 10:56:46;;;;;;;7.03;5.40;;;24.30;56.00;;;;;;2630009;30;20478;-80
2021/09/27 10:59:25;;;;;;;8.77;4.90;;;24.00;56.80;;;;;;2631336;30;20367;-80
2021/09/27 11:01:53;;;;;;;6.53;4.97;;;24.10;56.50;;;;;;2630470;30;20396;-80
2021/09/27 11:04:20;;;;;;;5.33;4.97;;;23.80;57.10;;;;;;2630638;38;20371;-79
2021/09/27 11:06:57;;;;;;;4.63;4.17;;;23.60;57.70;;;;;;2631579;38;20375;-80
2021/09/27 11:09:25;;;;;;;7.43;5.30;;;23.30;58.30;;;;;;2631732;30;20945;-80
2021/09/27 11:12:27;;;;;;;5.20;4.70;;;23.30;59.20;;;;;;2632204;30;20383;-83
2021/09/27 11:15:02;;;;;;;5.00;4.67;;;23.60;58.20;;;;;;2631137;30;20382;-81
2021/09/27 11:17:48;;;;;;;4.73;4.33;;;23.70;58.20;;;;;;2633111;38;20381;-81
2021/09/27 11:20:39;;;;;;;6.20;5.03;;;23.50;58.50;;;;;;2631223;30;20901;-80
2021/09/27 11:23:19;;;;;;;5.30;4.10;;;23.10;58.60;;;;;;2631044;30;20435;-81
2021/09/27 11:26:03;;;;;;;8.30;4.97;;;22.80;59.70;;;;;;2630769;30;20389;-80
2021/09/27 11:28:42;;;;;;;4.93;4.47;;;22.80;59.60;;;;;;2631823;30;20466;-81
2021/09/27 11:31:26;;;;;;;4.87;4.47;;;22.80;59.90;;;;;;2630049;30;20381;-80
2021/09/27 11:34:18;;;;;;;5.50;3.93;;;22.90;60.40;;;;;;2630177;38;20386;-81
2021/09/27 11:36:47;;;;;;;5.70;5.20;;;23.10;59.70;;;;;;2629116;30;20379;-80
2021/09/27 11:39:51;;;;;;;4.17;3.83;;;23.30;59.70;;;;;;2628489;30;20383;-81
2021/09/27 11:42:21;;;;;;;5.90;5.10;;;23.20;59.30;;;;;;2628907;30;20378;-79
2021/09/27 11:44:59;;;;;;;5.93;5.13;;;22.70;59.30;;;;;;2628805;30;20391;-80
2021/09/27 11:47:44;;;;;;;5.03;4.63;;;22.90;59.90;;;;;;2628887;30;20930;-82
2021/09/27 11:50:30;;;;;;;5.33;4.93;;;23.20;59.80;;;;;;2630079;30;20930;-79
2021/09/27 11:53:31;;;;;;;5.30;4.73;;;23.20;60.40;;;;;;2628581;30;20792;-81
2021/09/27 11:56:20;;;;;;;4.70;4.30;;;22.90;60.40;;;;;;2629085;30;20379;-81
2021/09/27 11:59:08;;;;;;;5.87;5.27;;;22.90;60.30;;;;;;2629069;30;20386;-81
2021/09/27 12:01:48;;;;;;;5.23;4.73;;;23.30;59.80;;;;;;2628617;30;20375;-79
2021/09/27 12:04:35;;;;;;;6.07;5.47;;;22.90;59.70;;;;;;2628249;38;20375;-80
2021/09/27 12:07:04;;;;;;;5.00;4.50;;;23.00;60.10;;;;;;2629842;30;20892;-80
2021/09/27 12:09:48;;;;;;;5.03;4.63;;;23.60;60.10;;;;;;2628059;30;20374;-80
2021/09/27 12:12:44;;;;;;;4.63;4.23;;;24.20;58.10;;;;;;2628639;30;20351;-81
2021/09/27 12:15:12;;;;;;;8.47;5.50;;;23.80;58.00;;;;;;2629236;30;20387;-79
2021/09/27 12:17:40;;;;;;;5.70;5.17;;;23.30;58.70;;;;;;2629557;30;20382;-81
2021/09/27 12:20:15;;;;;;;5.00;4.50;;;23.30;59.00;;;;;;2630524;30;20371;-82
2021/09/27 12:23:01;;;;;;;5.83;4.87;;;23.10;59.20;;;;;;2630887;30;20784;-81
2021/09/27 12:25:31;;;;;;;9.63;4.20;;;23.40;58.50;;;;;;2628841;30;20911;-81
2021/09/27 12:28:06;;;;;;;4.37;4.07;;;23.40;59.00;;;;;;2628427;30;20934;-80
2021/09/27 12:30:36;;;;;;;4.87;4.20;;;23.60;59.00;;;;;;2628640;30;20430;-80
2021/09/27 12:33:25;;;;;;;4.47;4.10;;;23.70;59.20;;;;;;2628739;30;20383;-81
2021/09/27 12:36:02;;;;;;;8.77;4.60;;;24.00;58.50;;;;;;2630732;30;20413;-80
2021/09/27 12:38:30;;;;;;;4.93;4.43;;;24.10;58.10;;;;;;2629405;30;20363;-81
2021/09/27 12:40:59;;;;;;;4.87;4.40;;;24.00;57.80;;;;;;2629402;38;20394;-81
2021/09/27 12:43:30;;;;;;;5.10;4.60;;;23.70;59.00;;;;;;2629095;31;20408;-80
2021/09/27 12:46:27;;;;;;;4.60;4.20;;;23.50;58.80;;;;;;2632616;30;20721;-80
2021/09/27 12:49:01;;;;;;;7.33;4.13;;;23.30;58.60;;;;;;2629227;30;20878;-80
2021/09/27 12:51:36;;;;;;;4.50;4.00;;;23.10;58.90;;;;;;2630713;30;20383;-80
2021/09/27 12:54:03;;;;;;;4.97;4.23;;;23.00;59.00;;;;;;2629586;30;20818;-80
2021/09/27 12:56:31;;;;;;;4.10;3.43;;;22.90;59.40;;;;;;2628825;30;20398;-80
2021/09/27 12:59:05;;;;;;;8.50;3.87;;;22.80;59.70;;;;;;2629061;30;20929;-82
2021/09/27 13:01:34;;;;;;;4.30;3.80;;;22.90;59.10;;;;;;2628313;30;20926;-81
2021/09/27 13:04:00;;;;;;;4.27;3.97;;;23.10;58.70;;;;;;2628160;38;20376;-81
2021/09/27 13:06:30;;;;;;;4.03;3.43;;;23.20;58.50;;;;;;2627487;38;20383;-82
2021/09/27 13:09:23;;;;;;;3.80;3.20;;;23.30;58.30;;;;;;2630881;30;20196;-79
2021/09/27 13:12:08;;;;;;;7.93;3.57;;;23.00;58.20;;;;;;2628060;30;21022;-79
2021/09/27 13:14:39;;;;;;;4.07;3.40;;;23.00;58.70;;;;;;2628262;38;20379;-82
2021/09/27 13:17:16;;;;;;;3.83;3.40;;;23.00;58.90;;;;;;2627338;30;20375;-80
2021/09/27 13:19:51;;;;;;;4.70;3.27;;;23.00;58.40;;;;;;2628187;38;20481;-80
2021/09/27 13:22:33;;;;;;;5.90;3.00;;;23.30;58.20;;;;;;2629517;30;20382;-80
2021/09/27 13:25:19;;;;;;;4.67;3.53;;;23.00;58.30;;;;;;2628500;30;20505;-81
2021/09/27 13:28:25;;;;;;;4.63;3.97;;;23.30;58.30;;;;;;2625750;38;20371;-81
2021/09/27 13:31:16;;;;;;;7.23;3.50;;;23.30;57.90;;;;;;2627896;38;20371;-81